Time;durP1;ratioP1;P1;durP2;ratioP2;P2;SDS_P1;SDS_P2;PMS_P1;PMS_P2;Temp;Humidity;BMP_temperature;BMP_pressure;BME280_temperature;BME280_humidity;BME280_pressure;Samples;Min_cycle;Max_cycle;Signal;HPM_P1;HPM_P2
2023/04/15 00:00:28;;;;;;;13.40;6.90;;;7.10;99.90;;;;;;5093708;28;20051;-89
2023/04/15 00:02:54;;;;;;;43.58;12.30;;;7.00;99.90;;;;;;5093610;28;20024;-87
2023/04/15 00:05:20;;;;;;;17.42;8.15;;;7.00;99.90;;;;;;5093771;28;20034;-87
2023/04/15 00:07:46;;;;;;;20.10;6.93;;;6.90;99.90;;;;;;5093557;28;20036;-90
2023/04/15 00:10:16;;;;;;;41.75;19.20;;;6.90;99.90;;;;;;5105999;28;20076;-88
2023/04/15 00:12:41;;;;;;;26.77;9.55;;;6.80;99.90;;;;;;5106369;28;20024;-88
2023/04/15 00:15:09;;;;;;;22.42;10.10;;;6.80;99.90;;;;;;5091971;28;20078;-86
2023/04/15 00:17:35;;;;;;;26.95;8.93;;;6.90;99.90;;;;;;5093620;28;20020;-86
2023/04/15 00:20:05;;;;;;;23.92;9.52;;;6.80;99.90;;;;;;5095237;28;20024;-87
2023/04/15 00:22:31;;;;;;;26.05;10.02;;;6.80;99.90;;;;;;5093235;28;20051;-87
2023/04/15 00:24:57;;;;;;;23.58;11.95;;;6.80;99.90;;;;;;5093210;28;20024;-85
2023/04/15 00:27:23;;;;;;;23.67;9.93;;;6.80;99.90;;;;;;5093468;28;20197;-85
2023/04/15 00:29:48;;;;;;;34.97;13.85;;;6.80;99.90;;;;;;5093346;28;20031;-86
2023/04/15 00:32:14;;;;;;;42.97;17.85;;;6.70;99.90;;;;;;5095067;28;20047;-86
2023/04/15 00:34:41;;;;;;;35.58;16.63;;;6.80;99.90;;;;;;5094289;28;20024;-86
2023/04/15 00:37:06;;;;;;;45.65;19.65;;;6.80;99.90;;;;;;5093004;28;20042;-87
2023/04/15 00:39:32;;;;;;;47.38;19.13;;;6.90;99.90;;;;;;5093059;28;20462;-86
2023/04/15 00:41:58;;;;;;;107.55;36.83;;;6.90;99.90;;;;;;5093235;28;20026;-87
2023/04/15 00:44:24;;;;;;;60.78;23.80;;;6.90;99.90;;;;;;5092590;28;20016;-86
2023/04/15 00:46:50;;;;;;;44.95;17.35;;;6.90;99.90;;;;;;5093017;28;20028;-86
2023/04/15 00:49:19;;;;;;;35.85;15.18;;;6.90;99.90;;;;;;5092803;28;20035;-86
2023/04/15 00:51:45;;;;;;;35.85;17.27;;;6.90;99.90;;;;;;5093079;28;20024;-85
2023/04/15 00:54:11;;;;;;;36.85;17.70;;;6.90;99.90;;;;;;5092898;28;20027;-86
2023/04/15 00:56:38;;;;;;;37.42;16.38;;;6.90;99.90;;;;;;5096358;28;20079;-85
2023/04/15 00:59:07;;;;;;;32.38;15.02;;;6.90;99.90;;;;;;5087618;28;20048;-86
2023/04/15 01:01:37;;;;;;;31.02;14.43;;;6.90;99.90;;;;;;5085995;28;20035;-86
2023/04/15 01:04:04;;;;;;;26.88;10.88;;;6.80;99.90;;;;;;5091740;28;20377;-86
2023/04/15 01:06:31;;;;;;;46.45;19.58;;;6.80;99.90;;;;;;5078733;28;20029;-86
2023/04/15 01:08:57;;;;;;;63.67;21.30;;;6.70;99.90;;;;;;5096020;28;20026;-86
2023/04/15 01:11:24;;;;;;;35.60;13.73;;;6.70;99.90;;;;;;5088071;28;20036;-86
2023/04/15 01:13:55;;;;;;;30.65;13.98;;;6.60;99.90;;;;;;5083422;28;20116;-87
2023/04/15 01:16:21;;;;;;;33.45;14.52;;;6.60;99.90;;;;;;5092170;28;20034;-86
2023/04/15 01:18:48;;;;;;;43.45;15.43;;;6.50;99.90;;;;;;5091882;28;20118;-86
2023/04/15 01:21:13;;;;;;;43.55;16.95;;;6.50;99.90;;;;;;5086683;28;20035;-85
2023/04/15 01:23:39;;;;;;;39.95;17.02;;;6.50;99.90;;;;;;5092170;28;20016;-87
2023/04/15 01:26:07;;;;;;;54.65;20.55;;;6.40;99.90;;;;;;5091448;28;20089;-87
2023/04/15 01:28:35;;;;;;;53.15;19.30;;;6.40;99.90;;;;;;5091675;28;20097;-86
2023/04/15 01:31:12;;;;;;;50.55;20.73;;;6.50;99.90;;;;;;5087351;28;20036;-87
2023/04/15 01:33:39;;;;;;;69.80;24.30;;;6.40;99.90;;;;;;5092915;28;20086;-86
2023/04/15 01:36:07;;;;;;;49.80;21.80;;;6.50;99.90;;;;;;5093049;28;20046;-86
2023/04/15 01:38:33;;;;;;;47.50;18.17;;;6.40;99.90;;;;;;5091382;28;20020;-86
2023/04/15 01:40:59;;;;;;;108.80;31.63;;;6.40;99.90;;;;;;5091851;28;20036;-86
2023/04/15 01:43:28;;;;;;;59.92;21.52;;;6.30;99.90;;;;;;5088798;28;20020;-85
2023/04/15 01:45:55;;;;;;;77.28;24.00;;;6.40;99.90;;;;;;5092800;28;20027;-86
2023/04/15 01:48:21;;;;;;;68.32;23.35;;;6.30;99.90;;;;;;5095770;28;20098;-86
2023/04/15 01:50:47;;;;;;;70.15;22.40;;;6.30;99.90;;;;;;5086746;28;20099;-87
2023/04/15 01:53:14;;;;;;;103.03;30.50;;;6.30;99.90;;;;;;5090664;28;20115;-85
2023/04/15 01:55:40;;;;;;;92.68;29.70;;;6.20;99.90;;;;;;5090308;28;20522;-86
2023/04/15 01:58:06;;;;;;;96.88;32.53;;;6.20;99.90;;;;;;5091241;28;20024;-86
2023/04/15 02:00:32;;;;;;;89.22;31.60;;;6.20;99.90;;;;;;5091371;28;20020;-86
2023/04/15 02:02:58;;;;;;;67.40;27.35;;;6.20;99.90;;;;;;5086264;28;20107;-86
2023/04/15 02:05:24;;;;;;;66.05;25.92;;;6.20;99.90;;;;;;5088365;28;20110;-85
2023/04/15 02:07:51;;;;;;;54.03;21.95;;;6.20;99.90;;;;;;5090086;28;20036;-86
2023/04/15 02:10:16;;;;;;;40.92;17.00;;;6.20;99.90;;;;;;5093881;28;20043;-86
2023/04/15 02:12:42;;;;;;;36.95;14.90;;;6.20;99.90;;;;;;5092898;28;20063;-86
2023/04/15 02:15:09;;;;;;;26.55;11.70;;;6.10;99.90;;;;;;5091265;28;20116;-85
2023/04/15 02:17:36;;;;;;;30.90;12.18;;;6.10;99.90;;;;;;5091506;28;20357;-86
2023/04/15 02:20:07;;;;;;;30.15;14.73;;;6.10;99.90;;;;;;5090043;28;20420;-86
2023/04/15 02:22:33;;;;;;;30.57;14.00;;;6.10;99.90;;;;;;5091197;28;20020;-86
2023/04/15 02:24:59;;;;;;;25.83;11.90;;;6.00;99.90;;;;;;5092615;28;20077;-86
2023/04/15 02:27:27;;;;;;;60.63;20.38;;;5.90;99.90;;;;;;5086917;28;20024;-85
2023/04/15 02:29:52;;;;;;;65.10;21.88;;;6.00;99.90;;;;;;5091144;28;20366;-86
2023/04/15 02:32:19;;;;;;;36.28;12.85;;;6.00;99.90;;;;;;5090926;28;20048;-87
2023/04/15 02:34:44;;;;;;;30.13;10.32;;;6.00;99.90;;;;;;5094499;28;20032;-86
2023/04/15 02:37:11;;;;;;;19.95;8.70;;;5.90;99.90;;;;;;5094888;28;20026;-86
2023/04/15 02:39:37;;;;;;;27.17;10.63;;;5.90;99.90;;;;;;5088775;28;20020;-86
2023/04/15 02:42:04;;;;;;;27.42;12.20;;;5.80;99.90;;;;;;5090145;28;20024;-86
2023/04/15 02:44:31;;;;;;;25.40;12.27;;;5.80;99.90;;;;;;5094855;28;20362;-86
2023/04/15 02:46:57;;;;;;;34.08;13.43;;;5.70;99.90;;;;;;5097795;28;20035;-85
2023/04/15 02:49:24;;;;;;;33.47;14.77;;;5.80;99.90;;;;;;5094390;28;20028;-86
2023/04/15 02:51:50;;;;;;;33.40;14.82;;;5.80;99.90;;;;;;5092121;28;20032;-86
2023/04/15 02:54:21;;;;;;;45.38;20.17;;;5.70;99.90;;;;;;5095003;28;20080;-86
2023/04/15 02:56:47;;;;;;;57.08;21.58;;;5.70;99.90;;;;;;5094654;28;20027;-86
2023/04/15 02:59:13;;;;;;;39.28;14.88;;;5.80;99.90;;;;;;5094489;28;20027;-86
2023/04/15 03:01:39;;;;;;;57.00;20.15;;;5.70;99.90;;;;;;5093846;28;20358;-86
2023/04/15 03:04:06;;;;;;;53.92;20.98;;;5.70;99.90;;;;;;5094061;28;20035;-86
2023/04/15 03:06:32;;;;;;;29.38;12.63;;;5.70;99.90;;;;;;5092671;28;20035;-85
2023/04/15 03:08:59;;;;;;;28.45;12.00;;;5.70;99.90;;;;;;5094639;28;20465;-86
2023/04/15 03:11:26;;;;;;;31.75;13.70;;;5.70;99.90;;;;;;5093553;28;20020;-86
2023/04/15 03:13:52;;;;;;;36.10;16.95;;;5.70;99.90;;;;;;5094820;28;20443;-86
2023/04/15 03:16:18;;;;;;;33.88;13.50;;;5.70;99.90;;;;;;5093885;28;20073;-86
2023/04/15 03:18:43;;;;;;;36.17;12.13;;;5.60;99.90;;;;;;5094105;28;20027;-86
2023/04/15 03:21:09;;;;;;;67.97;24.80;;;5.60;99.90;;;;;;5092520;28;20062;-85
2023/04/15 03:23:35;;;;;;;42.67;18.63;;;5.50;99.90;;;;;;5093045;28;20024;-86
2023/04/15 03:26:02;;;;;;;39.97;16.10;;;5.50;99.90;;;;;;5091060;28;20020;-86
2023/04/15 03:28:28;;;;;;;49.25;16.35;;;5.50;99.90;;;;;;5093722;28;20016;-85
2023/04/15 03:30:54;;;;;;;42.20;15.45;;;5.40;99.90;;;;;;5090069;28;20041;-86
2023/04/15 03:33:20;;;;;;;37.05;14.60;;;5.40;99.90;;;;;;5090797;28;20027;-86
2023/04/15 03:35:46;;;;;;;42.25;14.65;;;5.40;99.90;;;;;;5094039;28;20024;-85
2023/04/15 03:38:12;;;;;;;40.38;13.27;;;5.40;99.90;;;;;;5094507;28;20409;-86
2023/04/15 03:40:41;;;;;;;29.05;10.43;;;5.40;99.90;;;;;;5090675;28;20123;-86
2023/04/15 03:43:07;;;;;;;26.75;8.90;;;5.40;99.90;;;;;;5094401;28;20170;-86
2023/04/15 03:45:32;;;;;;;20.15;7.95;;;5.40;99.90;;;;;;5093188;28;20118;-86
2023/04/15 03:47:58;;;;;;;18.15;8.45;;;5.50;99.90;;;;;;5093500;28;20035;-87
2023/04/15 03:50:24;;;;;;;23.77;8.68;;;5.50;99.90;;;;;;5093724;28;20051;-86
2023/04/15 03:52:50;;;;;;;21.08;7.75;;;5.40;99.90;;;;;;5093311;28;20031;-86
2023/04/15 03:55:16;;;;;;;16.55;7.13;;;5.30;99.90;;;;;;5093161;28;20020;-85
2023/04/15 03:57:42;;;;;;;17.80;7.25;;;5.30;99.90;;;;;;5093325;28;20020;-85
2023/04/15 04:00:09;;;;;;;27.55;11.32;;;5.30;99.90;;;;;;5092998;28;20031;-86
2023/04/15 04:02:35;;;;;;;29.15;12.50;;;5.20;99.90;;;;;;5090303;28;20024;-85
2023/04/15 04:05:01;;;;;;;30.40;10.38;;;5.20;99.90;;;;;;5092392;28;20401;-85
2023/04/15 04:07:27;;;;;;;21.13;8.45;;;5.30;99.90;;;;;;5088282;28;20020;-86
2023/04/15 04:09:52;;;;;;;36.03;13.48;;;5.20;99.90;;;;;;5091292;28;20020;-85
2023/04/15 04:12:18;;;;;;;24.27;9.45;;;5.20;99.90;;;;;;5092782;28;20032;-85
2023/04/15 04:14:44;;;;;;;24.20;8.65;;;5.10;99.90;;;;;;5090393;28;20052;-86
2023/04/15 04:17:10;;;;;;;22.98;6.70;;;5.20;99.90;;;;;;5092971;28;20028;-86
2023/04/15 04:19:36;;;;;;;11.10;5.30;;;5.20;99.90;;;;;;5086745;28;20421;-86
2023/04/15 04:22:02;;;;;;;21.55;6.93;;;5.20;99.90;;;;;;5094271;28;20534;-86
2023/04/15 04:24:27;;;;;;;17.20;6.43;;;5.30;99.90;;;;;;5089293;28;20024;-85
2023/04/15 04:26:53;;;;;;;12.52;6.47;;;5.30;99.90;;;;;;5092121;28;20032;-86
2023/04/15 04:29:19;;;;;;;15.10;7.07;;;5.40;99.90;;;;;;5092859;28;20032;-86
2023/04/15 04:31:47;;;;;;;14.38;6.72;;;5.50;99.90;;;;;;5088360;28;20490;-87
2023/04/15 04:34:13;;;;;;;10.30;5.50;;;5.50;99.90;;;;;;5090059;28;20031;-86
2023/04/15 04:36:39;;;;;;;9.88;4.70;;;5.50;99.90;;;;;;5093928;28;20370;-86
2023/04/15 04:39:05;;;;;;;9.45;3.85;;;5.60;99.90;;;;;;5092532;28;20020;-85
2023/04/15 04:41:31;;;;;;;10.38;4.80;;;5.60;99.90;;;;;;5092330;28;20107;-86
2023/04/15 04:43:57;;;;;;;8.43;4.63;;;5.70;99.90;;;;;;5089481;28;20025;-85
2023/04/15 04:46:22;;;;;;;11.57;4.60;;;5.80;99.90;;;;;;5092448;28;20373;-86
2023/04/15 04:48:48;;;;;;;13.48;5.15;;;5.90;99.90;;;;;;5099716;28;20103;-86
2023/04/15 04:51:14;;;;;;;13.32;5.60;;;6.00;99.90;;;;;;5085834;28;20028;-86
2023/04/15 04:53:41;;;;;;;19.85;7.72;;;6.10;99.90;;;;;;5082417;28;20027;-86
2023/04/15 04:56:07;;;;;;;19.33;8.57;;;6.20;99.90;;;;;;5091527;28;20036;-86
2023/04/15 04:58:33;;;;;;;22.92;10.18;;;6.30;99.90;;;;;;5091684;28;20118;-86
2023/04/15 05:00:59;;;;;;;20.10;9.65;;;6.40;99.90;;;;;;5092283;28;20466;-85
2023/04/15 05:03:26;;;;;;;18.50;6.18;;;6.60;99.90;;;;;;5087819;28;20025;-86
2023/04/15 05:05:52;;;;;;;9.30;5.00;;;6.60;99.90;;;;;;5093018;28;20052;-87
2023/04/15 05:08:17;;;;;;;9.40;5.70;;;6.80;99.90;;;;;;5091942;28;20059;-86
2023/04/15 05:10:43;;;;;;;13.48;4.65;;;6.90;99.90;;;;;;5091860;28;20027;-85
2023/04/15 05:13:09;;;;;;;12.13;5.05;;;7.10;99.90;;;;;;5092814;28;20031;-86
2023/04/15 05:15:38;;;;;;;10.27;4.63;;;7.30;99.90;;;;;;5093667;28;20358;-86
2023/04/15 05:18:04;;;;;;;7.75;4.35;;;7.40;99.90;;;;;;5092742;28;20024;-87
2023/04/15 05:20:30;;;;;;;10.38;5.07;;;7.50;99.90;;;;;;5092200;28;20071;-86
2023/04/15 05:22:56;;;;;;;14.10;5.15;;;;;;;;;;5091462;28;20119;-86
2023/04/15 05:25:22;;;;;;;15.32;6.97;;;7.50;99.90;;;;;;5085640;28;20020;-87
2023/04/15 05:27:48;;;;;;;15.40;6.25;;;;;;;;;;5091988;28;20039;-88
2023/04/15 05:30:17;;;;;;;13.48;6.72;;;7.60;99.90;;;;;;5091653;28;20039;-89
2023/04/15 05:32:42;;;;;;;22.85;13.63;;;7.60;99.90;;;;;;5091412;28;20048;-87
2023/04/15 05:35:08;;;;;;;18.85;13.50;;;7.70;99.90;;;;;;5089547;28;20020;-86
2023/04/15 05:37:37;;;;;;;16.50;9.18;;;7.90;99.90;;;;;;5091576;28;20027;-88
2023/04/15 05:40:03;;;;;;;19.90;8.90;;;8.10;99.90;;;;;;5086879;28;20025;-86
2023/04/15 05:42:29;;;;;;;25.60;9.38;;;8.20;99.90;;;;;;5093410;28;20023;-87
2023/04/15 05:44:55;;;;;;;19.40;9.65;;;8.50;99.90;;;;;;5090363;28;20016;-87
2023/04/15 05:47:21;;;;;;;23.05;9.77;;;8.60;99.90;;;;;;5091336;28;20028;-88
2023/04/15 05:49:46;;;;;;;22.83;10.35;;;8.60;99.90;;;;;;5087298;28;20089;-89
2023/04/15 05:52:12;;;;;;;28.20;13.07;;;8.80;99.90;;;;;;5087849;28;20408;-87
2023/04/15 05:54:38;;;;;;;19.23;8.77;;;9.00;99.90;;;;;;5087587;28;20111;-87
2023/04/15 05:57:04;;;;;;;19.63;9.35;;;9.20;99.90;;;;;;5092422;28;20122;-89
2023/04/15 05:59:30;;;;;;;40.60;16.20;;;9.40;99.90;;;;;;5091932;28;20361;-87
2023/04/15 06:01:56;;;;;;;34.42;12.93;;;9.40;99.90;;;;;;5092308;28;20024;-88
2023/04/15 06:04:22;;;;;;;47.17;19.70;;;9.40;99.90;;;;;;5092104;28;20362;-86
2023/04/15 06:06:48;;;;;;;62.50;22.13;;;9.50;99.90;;;;;;5092184;28;20050;-88
2023/04/15 06:09:17;;;;;;;16.92;6.72;;;9.50;99.90;;;;;;5094963;28;20024;-89
2023/04/15 06:11:43;;;;;;;45.05;15.68;;;9.70;99.90;;;;;;5095563;28;20463;-88
2023/04/15 06:14:09;;;;;;;13.05;5.38;;;9.90;99.90;;;;;;5095729;28;20020;-88
2023/04/15 06:16:35;;;;;;;22.13;8.68;;;10.00;99.90;;;;;;5096043;28;20024;-88
2023/04/15 06:19:01;;;;;;;30.45;12.38;;;10.00;99.90;;;;;;5095706;28;20371;-88
2023/04/15 06:21:28;;;;;;;28.80;11.45;;;10.10;99.90;;;;;;5096083;28;20020;-85
2023/04/15 06:23:55;;;;;;;24.10;10.07;;;10.20;99.90;;;;;;5096244;28;20529;-88
2023/04/15 06:26:21;;;;;;;19.15;7.70;;;10.40;99.90;;;;;;5095677;28;20166;-88
2023/04/15 06:28:47;;;;;;;14.05;5.20;;;10.50;99.90;;;;;;5110904;28;20118;-87
2023/04/15 06:31:13;;;;;;;19.10;8.13;;;10.80;99.90;;;;;;5105183;28;20044;-87
2023/04/15 06:33:39;;;;;;;37.05;13.05;;;11.10;99.90;;;;;;5086735;28;20344;-90
2023/04/15 06:36:05;;;;;;;17.58;8.25;;;11.30;99.90;;;;;;5081740;28;20141;-88
2023/04/15 06:38:30;;;;;;;7.50;4.85;;;11.50;99.90;;;;;;5096144;28;20046;-89
2023/04/15 06:40:56;;;;;;;32.63;14.02;;;11.80;99.90;;;;;;5096119;28;20446;-88
2023/04/15 06:43:23;;;;;;;17.60;7.50;;;12.00;99.90;;;;;;5095204;28;20359;-86
2023/04/15 06:45:49;;;;;;;11.43;7.13;;;12.20;99.90;;;;;;5084916;28;20085;-86
2023/04/15 06:48:16;;;;;;;8.13;3.53;;;12.40;99.90;;;;;;5097004;28;20051;-88
2023/04/15 06:50:44;;;;;;;12.57;4.32;;;12.40;99.90;;;;;;5096682;28;20023;-89
2023/04/15 06:53:10;;;;;;;12.00;4.57;;;12.60;99.90;;;;;;5095520;28;20458;-86
2023/04/15 06:55:36;;;;;;;12.48;5.68;;;12.50;99.50;;;;;;5095506;28;20369;-84
2023/04/15 06:58:12;;;;;;;11.48;5.57;;;12.60;99.50;;;;;;5094887;28;20026;-87
2023/04/15 07:00:40;;;;;;;11.70;5.07;;;12.90;99.90;;;;;;5095692;28;20043;-89
2023/04/15 07:03:09;;;;;;;6.72;3.60;;;13.00;97.80;;;;;;5045288;28;20028;-86
2023/04/15 07:05:35;;;;;;;8.98;4.70;;;13.20;96.00;;;;;;5095402;28;20028;-88
2023/04/15 07:08:01;;;;;;;6.30;3.20;;;13.30;94.20;;;;;;5093839;28;20066;-87
2023/04/15 07:10:27;;;;;;;10.18;4.82;;;13.50;92.90;;;;;;5103553;28;20020;-87
2023/04/15 07:12:53;;;;;;;11.75;4.90;;;13.60;92.60;;;;;;5095074;28;20127;-85
2023/04/15 07:15:22;;;;;;;6.20;3.25;;;13.80;92.90;;;;;;5094912;28;20441;-88
2023/04/15 07:17:51;;;;;;;12.23;5.82;;;13.80;90.50;;;;;;5094789;28;20050;-85
2023/04/15 07:20:17;;;;;;;7.18;3.72;;;14.00;90.80;;;;;;5094163;28;20020;-88
2023/04/15 07:22:46;;;;;;;5.18;2.65;;;14.30;88.40;;;;;;5074712;28;20017;-88
2023/04/15 07:25:12;;;;;;;10.52;4.88;;;14.10;83.50;;;;;;5092764;28;20024;-88
2023/04/15 07:27:43;;;;;;;31.38;10.93;;;14.20;88.00;;;;;;5096254;28;20039;-87
2023/04/15 07:30:10;;;;;;;155.27;45.83;;;14.50;85.20;;;;;;5094742;28;20027;-86
2023/04/15 07:32:36;;;;;;;7.95;3.72;;;14.80;83.90;;;;;;5094730;28;20181;-87
2023/04/15 07:35:08;;;;;;;19.15;7.45;;;14.80;77.00;;;;;;5095013;28;20472;-87
2023/04/15 07:37:42;;;;;;;7.05;2.72;;;14.90;78.10;;;;;;5094270;28;20113;-89
2023/04/15 07:40:13;;;;;;;6.40;2.30;;;15.00;76.30;;;;;;5096209;28;20024;-89
2023/04/15 07:42:39;;;;;;;11.70;4.85;;;15.00;75.70;;;;;;5114737;28;20024;-86
2023/04/15 07:45:06;;;;;;;12.95;5.53;;;15.30;76.70;;;;;;5094048;28;20393;-84
2023/04/15 07:47:32;;;;;;;11.38;5.70;;;15.50;79.10;;;;;;5093584;28;20050;-85
2023/04/15 07:50:01;;;;;;;7.35;3.53;;;15.90;77.80;;;;;;5094064;28;20447;-86
2023/04/15 07:52:26;;;;;;;9.80;4.32;;;16.10;68.90;;;;;;5087393;28;20473;-85
2023/04/15 07:54:52;;;;;;;5.47;2.78;;;16.30;72.20;;;;;;5073398;28;20012;-88
2023/04/15 07:57:18;;;;;;;3.38;2.22;;;16.60;66.50;;;;;;5094324;28;20081;-85
2023/04/15 07:59:46;;;;;;;4.45;2.28;;;16.80;66.80;;;;;;5092705;28;20432;-85
2023/04/15 08:02:15;;;;;;;3.38;1.70;;;17.20;67.40;;;;;;5092447;28;20016;-90
2023/04/15 08:15:20;;;;;;;1.55;1.13;;;17.80;55.30;;;;;;5032364;28;20024;-87
2023/04/15 08:17:49;;;;;;;2.33;1.38;;;17.90;55.90;;;;;;5016741;28;20110;-86
2023/04/15 08:20:15;;;;;;;3.53;1.80;;;18.00;55.00;;;;;;5014002;28;20422;-87
2023/04/15 08:22:41;;;;;;;4.50;1.85;;;18.20;58.20;;;;;;5031331;28;20581;-91
2023/04/15 08:25:08;;;;;;;4.25;1.50;;;18.40;57.70;;;;;;5032049;28;20029;-83
2023/04/15 08:27:36;;;;;;;16.00;4.10;;;18.50;53.30;;;;;;5019203;28;20045;-86
2023/04/15 08:30:03;;;;;;;3.20;1.98;;;18.70;54.10;;;;;;5033570;28;20025;-87
2023/04/15 08:32:29;;;;;;;7.90;4.57;;;18.70;50.70;;;;;;5047569;28;20037;-88
2023/04/15 08:34:55;;;;;;;4.82;3.15;;;18.80;54.20;;;;;;5033667;28;20068;-85
2023/04/15 08:37:21;;;;;;;19.10;9.63;;;18.90;54.00;;;;;;5012672;28;20038;-85
2023/04/15 08:39:47;;;;;;;3.25;2.20;;;19.00;51.10;;;;;;5022236;28;20036;-89
2023/04/15 08:42:18;;;;;;;12.57;7.82;;;19.20;51.60;;;;;;5015503;28;20120;-89
2023/04/15 08:44:48;;;;;;;5.03;2.97;;;19.40;51.50;;;;;;5025179;28;20036;-87
2023/04/15 08:47:19;;;;;;;4.88;3.00;;;19.50;49.70;;;;;;5078419;28;20059;-90
2023/04/15 08:49:47;;;;;;;2.90;1.92;;;19.60;48.70;;;;;;5093697;28;20082;-87
2023/04/15 08:52:13;;;;;;;2.78;1.98;;;19.70;49.20;;;;;;5073511;28;20021;-88
2023/04/15 08:54:39;;;;;;;3.38;2.10;;;19.80;48.10;;;;;;5090023;28;20028;-87
2023/04/15 08:57:05;;;;;;;3.95;1.95;;;19.80;49.40;;;;;;5094821;28;20027;-88
2023/04/15 08:59:31;;;;;;;4.15;2.00;;;20.00;48.40;;;;;;5093262;28;20073;-88
2023/04/15 09:01:58;;;;;;;3.80;2.15;;;19.90;48.60;;;;;;5079187;28;20028;-85
2023/04/15 09:04:23;;;;;;;3.50;2.08;;;19.80;49.10;;;;;;5091966;28;20033;-84
2023/04/15 09:06:51;;;;;;;6.82;4.00;;;20.00;47.50;;;;;;5093691;28;20382;-86
2023/04/15 09:09:17;;;;;;;7.22;2.85;;;20.30;47.50;;;;;;5092521;28;20020;-85
2023/04/15 09:11:43;;;;;;;2.88;1.50;;;20.60;44.30;;;;;;5092078;28;20035;-83
2023/04/15 09:14:09;;;;;;;1.58;1.20;;;20.70;43.90;;;;;;5092820;28;20020;-84
2023/04/15 09:17:00;;;;;;;4.72;2.03;;;21.10;43.80;;;;;;5082777;28;20523;-84
2023/04/15 09:19:26;;;;;;;116.78;36.17;;;20.60;40.70;;;;;;5087443;28;20123;-87
2023/04/15 09:21:57;;;;;;;2.72;2.20;;;21.00;41.60;;;;;;5092514;28;20513;-83
2023/04/15 09:24:24;;;;;;;2.85;1.83;;;20.60;38.50;;;;;;5092533;28;20027;-86
2023/04/15 09:26:56;;;;;;;5.60;3.45;;;20.40;41.40;;;;;;5093473;28;20450;-84
2023/04/15 09:29:25;;;;;;;8.77;3.85;;;20.20;42.00;;;;;;5093356;28;20024;-87
2023/04/15 09:31:51;;;;;;;2.83;1.95;;;19.60;42.50;;;;;;5091992;28;20401;-84
2023/04/15 09:34:18;;;;;;;3.70;2.00;;;19.70;43.30;;;;;;5091707;28;20076;-82
2023/04/15 09:36:46;;;;;;;3.65;2.30;;;20.30;41.90;;;;;;5102498;28;20035;-86
2023/04/15 09:39:13;;;;;;;2.15;1.50;;;20.70;41.80;;;;;;5087202;28;20059;-82
2023/04/15 09:41:39;;;;;;;2.45;1.50;;;20.70;40.40;;;;;;5093703;28;20020;-86
2023/04/15 09:44:09;;;;;;;2.50;1.65;;;20.90;39.20;;;;;;5092646;28;20043;-84
2023/04/15 09:46:42;;;;;;;3.08;1.50;;;21.40;42.30;;;;;;5096791;28;20036;-85
2023/04/15 09:49:09;;;;;;;1.52;1.20;;;20.60;37.60;;;;;;5096800;28;20165;-87
2023/04/15 09:51:36;;;;;;;2.10;1.42;;;21.00;40.50;;;;;;5095712;28;20481;-86
2023/04/15 09:54:02;;;;;;;1.27;1.00;;;20.90;39.90;;;;;;5086435;28;20037;-86
2023/04/15 09:56:37;;;;;;;1.23;1.13;;;21.10;42.50;;;;;;5096893;28;20020;-87
2023/04/15 09:59:04;;;;;;;2.33;1.58;;;20.90;39.00;;;;;;5095116;28;20511;-86
2023/04/15 10:01:31;;;;;;;2.33;1.10;;;21.00;40.10;;;;;;5082631;28;20020;-84
2023/04/15 10:03:57;;;;;;;1.65;1.40;;;20.90;40.80;;;;;;5087520;28;20024;-85
2023/04/15 10:06:26;;;;;;;4.32;2.10;;;21.10;40.20;;;;;;5088336;28;20054;-87
2023/04/15 10:08:53;;;;;;;2.17;1.73;;;22.10;40.30;;;;;;5094873;28;20458;-86
2023/04/15 10:11:20;;;;;;;5.63;2.75;;;22.40;39.50;;;;;;5095425;28;20035;-85
2023/04/15 10:13:48;;;;;;;6.32;3.65;;;22.30;39.10;;;;;;5096933;28;20047;-86
2023/04/15 10:16:15;;;;;;;3.55;1.63;;;22.40;37.90;;;;;;5080273;28;20027;-83
2023/04/15 10:18:46;;;;;;;2.33;1.88;;;22.50;37.70;;;;;;5094825;28;20362;-85
2023/04/15 10:21:17;;;;;;;7.30;4.90;;;22.60;37.60;;;;;;5096858;28;20423;-82
2023/04/15 10:23:46;;;;;;;3.35;2.00;;;22.70;37.70;;;;;;5088505;28;20058;-86
2023/04/15 10:26:13;;;;;;;5.20;2.53;;;22.80;37.10;;;;;;5095414;28;20411;-85
2023/04/15 10:28:40;;;;;;;2.65;2.10;;;;;;;;;;5095895;28;20065;-87
2023/04/15 10:31:07;;;;;;;4.22;2.20;;;22.90;34.60;;;;;;5092005;28;20044;-83
2023/04/15 10:33:34;;;;;;;3.05;2.13;;;22.50;34.90;;;;;;5094858;28;20024;-85
2023/04/15 10:36:02;;;;;;;2.45;1.45;;;21.40;33.80;;;;;;5100488;28;20477;-83
2023/04/15 10:38:42;;;;;;;2.75;2.00;;;21.90;35.20;;;;;;5085918;28;20054;-82
2023/04/15 10:41:18;;;;;;;2.28;1.90;;;21.70;33.30;;;;;;5093032;28;20044;-82
2023/04/15 10:43:49;;;;;;;2.17;1.80;;;22.10;39.50;;;;;;5095556;28;20055;-84
2023/04/15 10:46:19;;;;;;;2.97;2.03;;;21.80;37.80;;;;;;5096521;28;20027;-84
2023/04/15 10:48:52;;;;;;;1.98;1.60;;;21.50;37.40;;;;;;5095109;28;20040;-85
2023/04/15 10:51:29;;;;;;;5.20;2.10;;;20.70;36.70;;;;;;5094965;28;20023;-83
2023/04/15 10:53:58;;;;;;;2.97;2.30;;;20.10;38.00;;;;;;5095143;28;20020;-85
2023/04/15 10:56:24;;;;;;;3.00;2.10;;;19.60;38.30;;;;;;5096911;28;20032;-84
2023/04/15 10:58:50;;;;;;;4.22;2.80;;;19.80;41.00;;;;;;5095178;28;20020;-82
2023/04/15 11:01:18;;;;;;;3.13;2.20;;;20.30;42.40;;;;;;5095559;28;20421;-84
2023/04/15 11:03:44;;;;;;;2.30;1.90;;;21.40;40.70;;;;;;5092864;28;20451;-84
2023/04/15 11:06:10;;;;;;;1.67;1.58;;;22.20;41.20;;;;;;5094521;28;20048;-82
2023/04/15 11:09:01;;;;;;;1.73;1.63;;;21.40;35.40;;;;;;5096119;28;20032;-83
2023/04/15 11:12:07;;;;;;;2.20;2.00;;;20.70;37.00;;;;;;5094173;28;20020;-85
2023/04/15 11:14:38;;;;;;;4.70;3.13;;;20.20;38.50;;;;;;5091955;28;20028;-83
2023/04/15 11:17:04;;;;;;;2.55;1.83;;;21.30;37.70;;;;;;5077877;28;20040;-87
2023/04/15 11:19:38;;;;;;;4.47;2.78;;;21.20;36.40;;;;;;5096437;28;20065;-84
2023/04/15 11:22:09;;;;;;;2.65;1.40;;;21.30;36.30;;;;;;5094085;28;20049;-82
2023/04/15 11:24:35;;;;;;;6.10;3.88;;;20.40;35.70;;;;;;5093058;28;20032;-83
2023/04/15 11:27:01;;;;;;;8.52;4.03;;;19.90;36.40;;;;;;5095587;28;20020;-84
2023/04/15 11:29:31;;;;;;;3.42;2.45;;;20.30;38.30;;;;;;5094640;28;20024;-84
2023/04/15 11:32:09;;;;;;;1.83;1.73;;;20.00;39.60;;;;;;5062431;28;20087;-84
2023/04/15 11:34:36;;;;;;;2.92;2.20;;;19.80;37.20;;;;;;5090078;28;20049;-83
2023/04/15 11:37:06;;;;;;;2.65;2.22;;;21.20;36.70;;;;;;5091571;28;20049;-82
2023/04/15 11:39:32;;;;;;;2.58;1.83;;;22.00;37.40;;;;;;5094747;28;20030;-82
2023/04/15 11:41:58;;;;;;;2.28;2.08;;;22.20;35.30;;;;;;5095988;28;20028;-83
2023/04/15 11:44:24;;;;;;;2.33;1.83;;;22.40;33.50;;;;;;5094151;28;20089;-83
2023/04/15 11:46:50;;;;;;;3.53;1.38;;;;;;;;;;5093781;28;20062;-83
2023/04/15 11:49:26;;;;;;;4.10;2.40;;;;;;;;;;5094043;28;20020;-82
2023/04/15 11:51:52;;;;;;;1.83;0.82;;;;;;;;;;5095428;28;20012;-83
2023/04/15 11:54:19;;;;;;;1.50;0.50;;;23.10;32.70;;;;;;5094062;28;20064;-80
2023/04/15 11:56:50;;;;;;;0.95;0.55;;;22.60;30.30;;;;;;5093456;28;20073;-83
2023/04/15 11:59:16;;;;;;;3.22;0.55;;;21.30;32.90;;;;;;5087932;28;20023;-82
2023/04/15 12:01:45;;;;;;;0.80;0.55;;;21.60;35.10;;;;;;5090332;28;20019;-84
2023/04/15 12:04:12;;;;;;;1.38;0.85;;;21.90;37.70;;;;;;5092972;28;20111;-81
2023/04/15 12:06:38;;;;;;;1.85;0.82;;;;;;;;;;5092068;28;20066;-85
2023/04/15 12:09:08;;;;;;;0.80;0.60;;;;;;;;;;5093153;28;20157;-86
2023/04/15 12:11:46;;;;;;;0.90;0.50;;;23.20;33.20;;;;;;5095190;28;20026;-82
2023/04/15 12:14:21;;;;;;;2.00;0.80;;;22.10;33.10;;;;;;5113074;28;20023;-84
2023/04/15 12:16:49;;;;;;;1.17;0.80;;;22.70;34.60;;;;;;5090538;28;20028;-84
2023/04/15 12:19:24;;;;;;;1.17;0.50;;;22.10;34.50;;;;;;5090889;28;20020;-83
2023/04/15 12:21:51;;;;;;;2.85;0.68;;;21.30;36.50;;;;;;5094099;28;20024;-85
2023/04/15 12:24:21;;;;;;;1.85;1.15;;;20.60;36.60;;;;;;5093759;28;20063;-85
2023/04/15 12:26:52;;;;;;;2.95;1.10;;;20.30;36.30;;;;;;5094757;28;20112;-84
2023/04/15 12:29:19;;;;;;;3.08;1.15;;;20.30;39.50;;;;;;5093679;28;20134;-84
2023/04/15 12:31:53;;;;;;;2.38;0.70;;;20.30;39.60;;;;;;5094099;28;20111;-84
2023/04/15 12:34:31;;;;;;;2.30;0.80;;;20.90;37.90;;;;;;5093090;28;20470;-83
2023/04/15 12:36:59;;;;;;;1.50;0.77;;;20.50;35.50;;;;;;5093643;28;20032;-86
2023/04/15 12:39:30;;;;;;;5.90;3.38;;;20.30;38.30;;;;;;5094877;28;20514;-85
2023/04/15 12:41:55;;;;;;;7.32;3.45;;;20.20;37.30;;;;;;5094416;28;20103;-83
2023/04/15 12:44:25;;;;;;;4.47;2.15;;;19.90;36.60;;;;;;5094717;28;20103;-84
2023/04/15 12:46:52;;;;;;;1.73;0.88;;;19.90;37.70;;;;;;5093164;28;20027;-84
2023/04/15 12:49:19;;;;;;;1.15;0.85;;;19.80;36.60;;;;;;5094573;28;20446;-83
2023/04/15 12:51:48;;;;;;;2.50;0.80;;;19.80;38.40;;;;;;5093258;28;20489;-84
2023/04/15 12:54:15;;;;;;;1.40;1.00;;;19.70;38.60;;;;;;5092740;28;20031;-84
2023/04/15 12:56:41;;;;;;;2.55;1.25;;;19.60;39.50;;;;;;5093151;28;20044;-83